createdAt,value
2022-07-27T00:03:04.259Z,12.55
2022-07-27T00:07:55.947Z,12.45
2022-07-27T00:12:47.969Z,12.36
2022-07-27T00:17:39.647Z,12.29
2022-07-27T00:22:31.330Z,12.27
2022-07-27T00:27:22.952Z,12.24
2022-07-27T00:32:14.621Z,12.18
2022-07-27T00:37:06.606Z,12.10
2022-07-27T00:41:58.546Z,12.04
2022-07-27T00:46:50.254Z,11.98
2022-07-27T00:51:41.964Z,11.94
2022-07-27T00:56:34.279Z,11.89
2022-07-27T01:01:26.023Z,11.83
2022-07-27T01:06:23.372Z,11.78
2022-07-27T01:11:19.059Z,11.71
2022-07-27T01:16:11.284Z,11.69
2022-07-27T01:21:06.847Z,11.61
2022-07-27T01:25:59.677Z,11.54
2022-07-27T01:30:51.360Z,11.51
2022-07-27T01:35:43.069Z,11.42
2022-07-27T01:40:36.963Z,11.38
2022-07-27T01:45:28.757Z,11.30
2022-07-27T01:50:20.486Z,11.26
2022-07-27T01:55:13.008Z,11.24
2022-07-27T02:00:11.186Z,11.19
2022-07-27T02:05:03.444Z,11.15
2022-07-27T02:09:55.393Z,11.10
2022-07-27T02:14:47.180Z,11.08
2022-07-27T02:19:38.850Z,10.97
2022-07-27T02:24:30.457Z,10.97
2022-07-27T02:29:22.087Z,10.94
2022-07-27T02:34:13.756Z,10.92
2022-07-27T02:39:05.442Z,10.91
2022-07-27T02:43:58.289Z,10.85
2022-07-27T02:48:50.362Z,10.81
2022-07-27T02:53:42.216Z,10.82
2022-07-27T02:58:34.038Z,10.82
2022-07-27T03:03:34.498Z,10.80
2022-07-27T03:08:28.558Z,10.75
2022-07-27T03:13:20.225Z,10.72
2022-07-27T03:18:12.024Z,10.73
2022-07-27T03:23:03.649Z,10.72
2022-07-27T03:27:57.331Z,10.66
2022-07-27T03:32:52.226Z,10.63
2022-07-27T03:37:44.067Z,10.57
2022-07-27T03:42:35.741Z,10.54
2022-07-27T03:47:27.543Z,10.49
2022-07-27T03:52:20.239Z,10.44
2022-07-27T03:57:12.005Z,10.41
2022-07-27T04:02:05.052Z,10.42
2022-07-27T04:06:56.890Z,10.35
2022-07-27T04:11:51.174Z,10.32
2022-07-27T04:16:43.358Z,10.30
2022-07-27T04:21:35.403Z,10.29
2022-07-27T04:26:27.376Z,10.26
2022-07-27T04:31:19.081Z,10.20
2022-07-27T04:36:10.842Z,10.18
2022-07-27T04:41:02.636Z,10.13
2022-07-27T04:45:54.349Z,10.11
2022-07-27T04:50:47.394Z,10.10
2022-07-27T04:55:44.588Z,10.12
2022-07-27T05:00:36.541Z,10.25
2022-07-27T05:05:28.282Z,10.57
2022-07-27T05:10:20.899Z,10.86
2022-07-27T05:15:12.663Z,11.01
2022-07-27T05:20:05.205Z,11.01
2022-07-27T05:24:56.858Z,11.11
2022-07-27T05:29:49.713Z,11.49
2022-07-27T05:34:42.153Z,12.14
2022-07-27T05:39:33.879Z,12.87
2022-07-27T05:44:25.642Z,13.59
2022-07-27T05:49:17.586Z,14.26
2022-07-27T05:54:09.583Z,14.95
2022-07-27T05:59:06.493Z,15.60
2022-07-27T06:04:01.675Z,16.11
2022-07-27T06:08:54.256Z,16.68
2022-07-27T06:13:46.031Z,17.20
2022-07-27T06:18:37.930Z,17.71
2022-07-27T06:23:29.828Z,17.80
2022-07-27T06:28:21.710Z,17.70
2022-07-27T06:33:14.550Z,18.26
2022-07-27T06:38:06.925Z,18.91
2022-07-27T06:42:59.205Z,19.60
2022-07-27T06:47:51.344Z,20.26
2022-07-27T06:52:43.687Z,20.53
2022-07-27T06:57:35.427Z,20.71
2022-07-27T07:02:28.156Z,21.03
2022-07-27T07:07:21.002Z,21.46
2022-07-27T07:12:12.641Z,22.02
2022-07-27T07:17:04.471Z,22.79
2022-07-27T07:21:56.124Z,23.19
2022-07-27T07:26:47.885Z,23.76
2022-07-27T07:31:39.865Z,23.97
2022-07-27T07:36:31.770Z,24.26
2022-07-27T07:41:24.080Z,24.73
2022-07-27T07:46:15.942Z,25.34
2022-07-27T07:51:07.929Z,25.87
2022-07-27T07:56:00.475Z,26.08
2022-07-27T08:00:52.578Z,26.66
2022-07-27T08:05:44.817Z,27.11
2022-07-27T08:10:36.497Z,27.46
2022-07-27T08:15:33.089Z,27.62
2022-07-27T08:20:28.878Z,27.50
2022-07-27T08:25:20.635Z,27.39
2022-07-27T08:30:12.768Z,27.86
2022-07-27T08:35:05.846Z,27.57
2022-07-27T08:45:34.517Z,26.65
2022-07-27T08:50:28.306Z,26.83
2022-07-27T08:55:20.527Z,27.27
2022-07-27T09:00:12.981Z,27.61
2022-07-27T09:05:05.537Z,28.07
2022-07-27T09:09:57.166Z,28.37
2022-07-27T09:14:53.089Z,28.83
2022-07-27T09:19:59.987Z,29.06
2022-07-27T09:25:04.717Z,28.91
2022-07-27T09:30:17.954Z,28.87
2022-07-27T09:35:19.635Z,29.26
2022-07-27T09:40:13.651Z,29.39
2022-07-27T09:45:32.487Z,29.35
2022-07-27T09:50:31.100Z,29.22
2022-07-27T09:55:25.544Z,29.54
2022-07-27T10:00:17.855Z,29.73
2022-07-27T10:05:10.422Z,29.98
2022-07-27T10:10:02.911Z,30.07
2022-07-27T10:14:54.556Z,30.18
2022-07-27T10:19:49.942Z,29.86
2022-07-27T10:24:41.598Z,29.37
2022-07-27T10:29:33.365Z,28.67
2022-07-27T10:34:35.190Z,28.17
2022-07-27T10:39:33.117Z,28.18
2022-07-27T10:44:28.876Z,28.20
2022-07-27T10:49:29.390Z,28.71
2022-07-27T10:54:25.800Z,29.03
2022-07-27T11:00:06.874Z,29.23
2022-07-27T11:04:52.569Z,29.13
2022-07-27T11:14:59.403Z,28.73
2022-07-27T11:19:56.006Z,28.21
2022-07-27T11:24:49.801Z,27.82
2022-07-27T11:29:43.731Z,27.96
2022-07-27T11:34:36.845Z,27.92
2022-07-27T11:44:42.622Z,27.58
2022-07-27T11:49:34.810Z,27.21
2022-07-27T11:54:28.248Z,27.09
2022-07-27T11:59:27.947Z,27.26
2022-07-27T12:04:21.559Z,27.03
2022-07-27T12:09:16.063Z,27.10
2022-07-27T12:14:15.297Z,27.19
2022-07-27T12:19:07.218Z,27.00
2022-07-27T12:23:58.950Z,26.76
2022-07-27T12:29:13.343Z,26.74
2022-07-27T12:34:06.785Z,26.72
2022-07-27T12:38:58.887Z,26.65
2022-07-27T12:44:07.086Z,26.61
2022-07-27T12:48:58.827Z,26.56
2022-07-27T12:53:50.523Z,26.40
2022-07-27T12:59:01.406Z,26.47
2022-07-27T13:03:53.206Z,26.26
2022-07-27T13:08:45.094Z,26.03
2022-07-27T13:13:36.841Z,25.90
2022-07-27T13:18:28.572Z,25.81
2022-07-27T13:23:21.174Z,25.76
2022-07-27T13:28:13.111Z,25.82
2022-07-27T13:33:04.884Z,25.92
2022-07-27T13:37:56.701Z,25.70
2022-07-27T13:42:48.429Z,25.44
2022-07-27T13:47:41.236Z,25.12
2022-07-27T13:52:33.007Z,25.01
2022-07-27T13:57:24.757Z,24.98
2022-07-27T14:02:16.516Z,24.97
2022-07-27T14:07:14.574Z,24.88
2022-07-27T14:12:06.408Z,24.76
2022-07-27T14:16:58.143Z,24.70
2022-07-27T14:21:49.850Z,24.77
2022-07-27T14:26:41.549Z,24.91
2022-07-27T14:31:35.034Z,25.14
2022-07-27T14:36:26.741Z,25.16
2022-07-27T14:41:18.412Z,25.34
2022-07-27T14:46:10.036Z,25.43
2022-07-27T14:51:01.787Z,25.54
2022-07-27T14:55:53.787Z,25.45
2022-07-27T15:00:45.690Z,25.32
2022-07-27T15:05:50.107Z,24.98
2022-07-27T15:10:44.163Z,24.82
2022-07-27T15:15:35.785Z,24.79
2022-07-27T15:20:27.487Z,24.72
2022-07-27T15:25:19.169Z,24.50
2022-07-27T15:30:11.427Z,24.35
2022-07-27T15:35:03.555Z,24.28
2022-07-27T15:39:55.563Z,24.22
2022-07-27T15:44:47.225Z,24.22
2022-07-27T15:49:38.923Z,24.13
2022-07-27T15:54:33.892Z,24.13
2022-07-27T15:59:27.466Z,24.20
2022-07-27T16:04:19.190Z,24.24
2022-07-27T16:09:11.909Z,24.15
2022-07-27T16:14:03.784Z,24.04
2022-07-27T16:18:57.329Z,24.01
2022-07-27T16:23:49.982Z,23.97
2022-07-27T16:28:45.349Z,23.89
2022-07-27T16:33:37.310Z,23.76
2022-07-27T16:38:29.194Z,23.68
2022-07-27T16:43:20.886Z,23.66
2022-07-27T16:48:12.953Z,23.62
2022-07-27T16:53:05.136Z,23.55
2022-07-27T16:57:57.034Z,23.49
2022-07-27T17:02:48.658Z,23.40
2022-07-27T17:07:40.428Z,23.33
2022-07-27T17:12:35.333Z,23.28
2022-07-27T17:17:30.148Z,23.30
2022-07-27T17:22:21.774Z,23.21
2022-07-27T17:27:13.417Z,23.13
2022-07-27T17:32:05.290Z,23.07
2022-07-27T17:36:56.920Z,22.99
2022-07-27T17:41:49.935Z,22.98
2022-07-27T17:46:41.610Z,22.93
2022-07-27T17:51:34.677Z,22.93
2022-07-27T17:56:26.402Z,22.82
2022-07-27T18:01:18.251Z,22.69
2022-07-27T18:06:30.326Z,22.56
2022-07-27T18:11:22.033Z,22.43
2022-07-27T18:16:14.209Z,22.34
2022-07-27T18:21:06.392Z,22.29
2022-07-27T18:25:58.967Z,21.98
2022-07-27T18:30:52.492Z,21.44
2022-07-27T18:35:45.481Z,21.06
2022-07-27T18:40:38.551Z,20.73
2022-07-27T18:45:34.356Z,20.40
2022-07-27T18:50:27.204Z,20.11
2022-07-27T18:55:21.461Z,19.87
2022-07-27T19:00:13.725Z,19.64
2022-07-27T19:05:06.042Z,19.38
2022-07-27T19:09:58.467Z,19.22
2022-07-27T19:14:53.343Z,19.04
2022-07-27T19:19:45.724Z,18.84
2022-07-27T19:24:37.471Z,18.63
2022-07-27T19:29:29.201Z,18.52
2022-07-27T19:34:21.214Z,18.38
2022-07-27T19:39:13.488Z,18.24
2022-07-27T19:44:05.741Z,18.11
2022-07-27T19:48:57.712Z,18.01
2022-07-27T19:53:50.376Z,17.98
2022-07-27T19:58:42.688Z,18.02
2022-07-27T20:03:35.028Z,18.03
2022-07-27T20:08:45.877Z,18.02
2022-07-27T20:13:37.811Z,18.01
2022-07-27T20:18:30.697Z,17.96
2022-07-27T20:23:22.803Z,17.87
2022-07-27T20:28:14.446Z,17.87
2022-07-27T20:33:06.648Z,17.92
2022-07-27T20:37:59.441Z,17.99
2022-07-27T20:42:51.120Z,17.88
2022-07-27T20:47:43.006Z,17.74
2022-07-27T20:52:35.366Z,17.68
2022-07-27T20:57:27.079Z,17.62
2022-07-27T21:02:18.815Z,17.61
2022-07-27T21:07:10.595Z,17.57
2022-07-27T21:12:02.322Z,17.52
2022-07-27T21:16:54.054Z,17.48
2022-07-27T21:21:45.686Z,17.42
2022-07-27T21:26:38.034Z,17.35
2022-07-27T21:31:30.613Z,17.26
2022-07-27T21:36:22.990Z,17.21
2022-07-27T21:41:15.558Z,17.11
2022-07-27T21:46:07.556Z,17.05
2022-07-27T21:50:59.633Z,16.98
2022-07-27T21:55:51.381Z,16.95
2022-07-27T22:00:43.665Z,16.97
2022-07-27T22:05:35.769Z,16.96
2022-07-27T22:10:30.017Z,16.99
2022-07-27T22:15:21.669Z,16.97
2022-07-27T22:20:13.304Z,16.97
2022-07-27T22:25:05.386Z,16.96
2022-07-27T22:29:57.597Z,16.94
2022-07-27T22:34:49.335Z,16.86
2022-07-27T22:39:40.984Z,16.77
2022-07-27T22:44:32.678Z,16.71
2022-07-27T22:49:24.550Z,16.61
2022-07-27T22:54:16.992Z,16.53
2022-07-27T22:59:09.023Z,16.44
2022-07-27T23:04:00.706Z,16.39
2022-07-27T23:08:52.358Z,16.34
2022-07-27T23:13:43.991Z,16.33
2022-07-27T23:18:35.794Z,16.32
2022-07-27T23:23:27.677Z,16.27
2022-07-27T23:28:19.497Z,16.23
2022-07-27T23:33:11.943Z,16.21
2022-07-27T23:38:03.683Z,16.18
2022-07-27T23:42:55.457Z,16.19
2022-07-27T23:47:47.264Z,16.17
2022-07-27T23:52:39.187Z,16.14
2022-07-27T23:57:30.883Z,16.16
